DAL2688 KPHL-KMSP
Flight info
| Callsign | DAL2688 |
|---|---|
| Flight time | 2h 35m |
| Altitude | 36000 |
| Route | PHL4 PTW SARAA RAV PSB J60 DJB J34 ADALE KAMMA KKILR4 |
| Aircraft | A319/M-SDE3FGHIRWY/LB1 |
Departure
| Time | 2026-05-04 17:48 |
|---|---|
| Airport | Philadelphia International Airport (KPHL) |
Arrival
| Time | 2026-05-04 20:24 |
|---|---|
| Airport | Minneapolis–Saint Paul International Airport / Wold–Chamberlain Field (KMSP) |
| Time | Latitude | Longitude | Altitude | Speed | Heading |
|---|---|---|---|---|---|
| 2026-05-04 17:14 | 39.87503 | -75.23764 | 22 ft | 0 kts | 311° |
| 2026-05-04 17:17 | 39.87502 | -75.23763 | 22 ft | 0 kts | 311° |
| 2026-05-04 17:26 | 39.87502 | -75.23762 | 21 ft | 0 kts | 311° |
| 2026-05-04 17:29 | 39.87501 | -75.23762 | 21 ft | 0 kts | 311° |
| 2026-05-04 17:34 | 39.87501 | -75.23761 | 21 ft | 0 kts | 311° |
| 2026-05-04 17:39 | 39.87487 | -75.23742 | 24 ft | 4 kts | 323° |
| 2026-05-04 17:39 | 39.87464 | -75.23728 | 22 ft | 4 kts | 2° |
| 2026-05-04 17:40 | 39.87447 | -75.23736 | 25 ft | 0 kts | 46° |
| 2026-05-04 17:42 | 39.87448 | -75.23734 | 25 ft | 1 kts | 47° |
| 2026-05-04 17:42 | 39.87455 | -75.23723 | 25 ft | 3 kts | 54° |
| 2026-05-04 17:43 | 39.87467 | -75.23698 | 23 ft | 5 kts | 58° |
| 2026-05-04 17:43 | 39.87498 | -75.23646 | 21 ft | 9 kts | 46° |
| 2026-05-04 17:43 | 39.87551 | -75.23588 | 20 ft | 11 kts | 32° |
| 2026-05-04 17:43 | 39.87618 | -75.23554 | 22 ft | 10 kts | 17° |
| 2026-05-04 17:44 | 39.87691 | -75.23524 | 23 ft | 12 kts | 19° |
| 2026-05-04 17:44 | 39.87770 | -75.23468 | 22 ft | 14 kts | 57° |
| 2026-05-04 17:44 | 39.87725 | -75.23374 | 22 ft | 15 kts | 158° |
| 2026-05-04 17:44 | 39.87618 | -75.23323 | 21 ft | 17 kts | 159° |
| 2026-05-04 17:45 | 39.87505 | -75.23266 | 22 ft | 18 kts | 158° |
| 2026-05-04 17:45 | 39.87381 | -75.23202 | 19 ft | 17 kts | 159° |
| 2026-05-04 17:45 | 39.87266 | -75.23144 | 17 ft | 18 kts | 158° |
| 2026-05-04 17:45 | 39.87144 | -75.23102 | 16 ft | 14 kts | 208° |
| 2026-05-04 17:46 | 39.87106 | -75.23184 | 17 ft | 10 kts | 215° |
| 2026-05-04 17:46 | 39.87053 | -75.23260 | 17 ft | 13 kts | 239° |
| 2026-05-04 17:46 | 39.87018 | -75.23373 | 16 ft | 14 kts | 252° |
| 2026-05-04 17:46 | 39.86953 | -75.23413 | 16 ft | 13 kts | 169° |
| 2026-05-04 17:47 | 39.86893 | -75.23460 | 19 ft | 4 kts | 255° |
| 2026-05-04 17:47 | 39.86890 | -75.23475 | 19 ft | 8 kts | 255° |
| 2026-05-04 17:47 | 39.86830 | -75.23772 | 20 ft | 67 kts | 255° |
| 2026-05-04 17:47 | 39.86659 | -75.24628 | 22 ft | 125 kts | 255° |
| 2026-05-04 17:48 | 39.86394 | -75.25907 | 148 ft | 158 kts | 255° |
| 2026-05-04 17:48 | 39.86066 | -75.27313 | 667 ft | 167 kts | 254° |
| 2026-05-04 17:48 | 39.85635 | -75.28742 | 1298 ft | 172 kts | 249° |
| 2026-05-04 17:48 | 39.85172 | -75.30208 | 1845 ft | 183 kts | 248° |
| 2026-05-04 17:49 | 39.84657 | -75.31870 | 2073 ft | 213 kts | 248° |
| 2026-05-04 17:49 | 39.84221 | -75.33823 | 2549 ft | 234 kts | 263° |
| 2026-05-04 17:49 | 39.84415 | -75.35950 | 3304 ft | 250 kts | 289° |
| 2026-05-04 17:49 | 39.85508 | -75.37865 | 3826 ft | 278 kts | 320° |
| 2026-05-04 17:50 | 39.87213 | -75.39029 | 4981 ft | 277 kts | 335° |
| 2026-05-04 17:50 | 39.88973 | -75.39841 | 6049 ft | 269 kts | 338° |
| 2026-05-04 17:50 | 39.90725 | -75.40643 | 7065 ft | 265 kts | 335° |
| 2026-05-04 17:50 | 39.92462 | -75.41505 | 7906 ft | 269 kts | 334° |
| 2026-05-04 17:51 | 39.94211 | -75.42395 | 8800 ft | 271 kts | 334° |
| 2026-05-04 17:51 | 39.95977 | -75.43290 | 9642 ft | 275 kts | 334° |
| 2026-05-04 17:51 | 39.97779 | -75.44193 | 10355 ft | 283 kts | 335° |
| 2026-05-04 17:51 | 39.99697 | -75.45144 | 10625 ft | 307 kts | 335° |
| 2026-05-04 17:52 | 40.01740 | -75.46142 | 11145 ft | 318 kts | 335° |
| 2026-05-04 17:52 | 40.03833 | -75.47150 | 11767 ft | 324 kts | 335° |
| 2026-05-04 17:52 | 40.05956 | -75.48166 | 12154 ft | 326 kts | 335° |
| 2026-05-04 17:52 | 40.08093 | -75.49189 | 12957 ft | 328 kts | 335° |
| 2026-05-04 17:53 | 40.10243 | -75.50224 | 13738 ft | 331 kts | 335° |
| 2026-05-04 17:53 | 40.12413 | -75.51270 | 14413 ft | 334 kts | 335° |
| 2026-05-04 17:53 | 40.14599 | -75.52330 | 15086 ft | 336 kts | 335° |
| 2026-05-04 17:53 | 40.16797 | -75.53396 | 15765 ft | 339 kts | 336° |
| 2026-05-04 17:54 | 40.19015 | -75.54469 | 16443 ft | 341 kts | 336° |
| 2026-05-04 17:54 | 40.21187 | -75.55719 | 17097 ft | 340 kts | 327° |
| 2026-05-04 17:54 | 40.23102 | -75.57521 | 17757 ft | 339 kts | 315° |
| 2026-05-04 17:54 | 40.24694 | -75.59745 | 18379 ft | 341 kts | 309° |
| 2026-05-04 17:55 | 40.26250 | -75.62098 | 18944 ft | 343 kts | 309° |
| 2026-05-04 17:55 | 40.27822 | -75.64460 | 19521 ft | 345 kts | 309° |
| 2026-05-04 17:55 | 40.29404 | -75.66834 | 20113 ft | 347 kts | 309° |
| 2026-05-04 17:55 | 40.30995 | -75.69222 | 20690 ft | 349 kts | 309° |
| 2026-05-04 17:56 | 40.32594 | -75.71626 | 21270 ft | 351 kts | 309° |
| 2026-05-04 17:56 | 40.34203 | -75.74048 | 21851 ft | 353 kts | 309° |
| 2026-05-04 17:56 | 40.35821 | -75.76488 | 22418 ft | 355 kts | 309° |
| 2026-05-04 17:56 | 40.37445 | -75.78942 | 22967 ft | 357 kts | 309° |
| 2026-05-04 17:57 | 40.39078 | -75.81413 | 23523 ft | 359 kts | 310° |
| 2026-05-04 17:57 | 40.40702 | -75.83875 | 23974 ft | 361 kts | 310° |
| 2026-05-04 17:57 | 40.42329 | -75.86406 | 24418 ft | 363 kts | 306° |
| 2026-05-04 17:57 | 40.43643 | -75.89240 | 24856 ft | 365 kts | 296° |
| 2026-05-04 17:58 | 40.44515 | -75.92379 | 25274 ft | 369 kts | 285° |
| 2026-05-04 17:58 | 40.45053 | -75.95686 | 25685 ft | 371 kts | 283° |
| 2026-05-04 17:58 | 40.45586 | -75.99012 | 26110 ft | 373 kts | 284° |
| 2026-05-04 17:58 | 40.46128 | -76.02358 | 26514 ft | 375 kts | 284° |
| 2026-05-04 17:59 | 40.46679 | -76.05723 | 26922 ft | 378 kts | 284° |
| 2026-05-04 17:59 | 40.47232 | -76.09101 | 27313 ft | 380 kts | 284° |
| 2026-05-04 17:59 | 40.48350 | -76.15972 | 27778 ft | 392 kts | 284° |
| 2026-05-04 18:00 | 40.48914 | -76.19467 | 27915 ft | 400 kts | 284° |
| 2026-05-04 18:00 | 40.49494 | -76.23070 | 28049 ft | 407 kts | 284° |
| 2026-05-04 18:00 | 40.50083 | -76.26733 | 28188 ft | 413 kts | 284° |
| 2026-05-04 18:00 | 40.50679 | -76.30452 | 28327 ft | 418 kts | 284° |
| 2026-05-04 18:01 | 40.51282 | -76.34213 | 28509 ft | 422 kts | 284° |
| 2026-05-04 18:01 | 40.51886 | -76.37994 | 28858 ft | 423 kts | 284° |
| 2026-05-04 18:01 | 40.52487 | -76.41780 | 29272 ft | 422 kts | 284° |
| 2026-05-04 18:02 | 40.53675 | -76.49311 | 30119 ft | 420 kts | 284° |
| 2026-05-04 18:02 | 40.54264 | -76.53066 | 30481 ft | 418 kts | 283° |
| 2026-05-04 18:02 | 40.54840 | -76.56761 | 30855 ft | 417 kts | 284° |
| 2026-05-04 18:02 | 40.55491 | -76.60471 | 31201 ft | 415 kts | 289° |
| 2026-05-04 18:03 | 40.56437 | -76.64051 | 31549 ft | 414 kts | 291° |
| 2026-05-04 18:03 | 40.57395 | -76.67615 | 31935 ft | 413 kts | 291° |
| 2026-05-04 18:03 | 40.58346 | -76.71174 | 32304 ft | 412 kts | 291° |
| 2026-05-04 18:03 | 40.59291 | -76.74729 | 32676 ft | 411 kts | 291° |
| 2026-05-04 18:04 | 40.60235 | -76.78278 | 33046 ft | 410 kts | 291° |
| 2026-05-04 18:04 | 40.61175 | -76.81820 | 33414 ft | 410 kts | 292° |
| 2026-05-04 18:04 | 40.63039 | -76.88844 | 34113 ft | 408 kts | 292° |
| 2026-05-04 18:05 | 40.63973 | -76.92369 | 34406 ft | 408 kts | 291° |
| 2026-05-04 18:05 | 40.64904 | -76.95891 | 34681 ft | 408 kts | 291° |
| 2026-05-04 18:05 | 40.65835 | -76.99416 | 34952 ft | 408 kts | 291° |
| 2026-05-04 18:05 | 40.66764 | -77.02947 | 35219 ft | 408 kts | 291° |
| 2026-05-04 18:06 | 40.68621 | -77.10020 | 35735 ft | 408 kts | 291° |
| 2026-05-04 18:06 | 40.69550 | -77.13551 | 35893 ft | 408 kts | 291° |
| 2026-05-04 18:06 | 40.70481 | -77.17088 | 35927 ft | 409 kts | 291° |
| 2026-05-04 18:07 | 40.72330 | -77.24170 | 35910 ft | 408 kts | 291° |
| 2026-05-04 18:07 | 40.74156 | -77.31194 | 35908 ft | 408 kts | 291° |
| 2026-05-04 18:08 | 40.75993 | -77.38272 | 35903 ft | 408 kts | 291° |
| 2026-05-04 18:08 | 40.77831 | -77.45358 | 35895 ft | 407 kts | 291° |
| 2026-05-04 18:09 | 40.81477 | -77.59465 | 35909 ft | 407 kts | 291° |
| 2026-05-04 18:10 | 40.83295 | -77.66544 | 35910 ft | 407 kts | 291° |
| 2026-05-04 18:10 | 40.85103 | -77.73628 | 35907 ft | 407 kts | 291° |
| 2026-05-04 18:11 | 40.86913 | -77.80707 | 35904 ft | 407 kts | 290° |
| 2026-05-04 18:11 | 40.88717 | -77.87788 | 35894 ft | 406 kts | 290° |
| 2026-05-04 18:12 | 40.90506 | -77.94829 | 35892 ft | 406 kts | 290° |
| 2026-05-04 18:12 | 40.91983 | -78.02047 | 35882 ft | 409 kts | 282° |
| 2026-05-04 18:13 | 40.92889 | -78.09481 | 35881 ft | 410 kts | 282° |
| 2026-05-04 18:14 | 40.94277 | -78.20646 | 35875 ft | 410 kts | 282° |
| 2026-05-04 18:14 | 40.95194 | -78.28100 | 35875 ft | 410 kts | 282° |
| 2026-05-04 18:15 | 40.96996 | -78.42971 | 35877 ft | 411 kts | 282° |
| 2026-05-04 18:16 | 40.97900 | -78.50432 | 35879 ft | 411 kts | 282° |
| 2026-05-04 18:16 | 40.98798 | -78.57901 | 35881 ft | 411 kts | 282° |
| 2026-05-04 18:17 | 41.00130 | -78.69104 | 35868 ft | 411 kts | 282° |
| 2026-05-04 18:18 | 41.01440 | -78.80266 | 35865 ft | 411 kts | 281° |
| 2026-05-04 18:18 | 41.02312 | -78.87747 | 35877 ft | 411 kts | 281° |
| 2026-05-04 18:19 | 41.03616 | -78.98956 | 35886 ft | 410 kts | 281° |
| 2026-05-04 18:19 | 41.04476 | -79.06433 | 35868 ft | 410 kts | 281° |
| 2026-05-04 18:20 | 41.05333 | -79.13901 | 35868 ft | 410 kts | 281° |
| 2026-05-04 18:20 | 41.06188 | -79.21371 | 35875 ft | 410 kts | 281° |
| 2026-05-04 18:21 | 41.07039 | -79.28841 | 35875 ft | 410 kts | 281° |
| 2026-05-04 18:21 | 41.07881 | -79.36257 | 35868 ft | 410 kts | 281° |
| 2026-05-04 18:22 | 41.08715 | -79.43726 | 35867 ft | 410 kts | 281° |
| 2026-05-04 18:22 | 41.09544 | -79.51203 | 35868 ft | 410 kts | 281° |
| 2026-05-04 18:23 | 41.10370 | -79.58675 | 35869 ft | 409 kts | 281° |
| 2026-05-04 18:23 | 41.11196 | -79.66145 | 35877 ft | 409 kts | 281° |
| 2026-05-04 18:24 | 41.12016 | -79.73616 | 35870 ft | 409 kts | 281° |
| 2026-05-04 18:24 | 41.12828 | -79.81092 | 35850 ft | 409 kts | 280° |
| 2026-05-04 18:25 | 41.13635 | -79.88567 | 35851 ft | 409 kts | 280° |
| 2026-05-04 18:25 | 41.14436 | -79.96045 | 35862 ft | 409 kts | 280° |
| 2026-05-04 18:26 | 41.15234 | -80.03523 | 35860 ft | 409 kts | 280° |
| 2026-05-04 18:26 | 41.16018 | -80.10960 | 35875 ft | 409 kts | 280° |
| 2026-05-04 18:27 | 41.16802 | -80.18442 | 35848 ft | 409 kts | 280° |
| 2026-05-04 18:27 | 41.17591 | -80.25930 | 35848 ft | 409 kts | 280° |
| 2026-05-04 18:28 | 41.18373 | -80.33420 | 35849 ft | 409 kts | 279° |
| 2026-05-04 18:28 | 41.19142 | -80.40911 | 35856 ft | 410 kts | 279° |
| 2026-05-04 18:29 | 41.19914 | -80.48409 | 35848 ft | 410 kts | 279° |
| 2026-05-04 18:29 | 41.20677 | -80.55856 | 35842 ft | 410 kts | 279° |
| 2026-05-04 18:30 | 41.21809 | -80.67107 | 35829 ft | 409 kts | 279° |
| 2026-05-04 18:31 | 41.22565 | -80.74615 | 35829 ft | 410 kts | 279° |
| 2026-05-04 18:31 | 41.23310 | -80.82070 | 35828 ft | 410 kts | 279° |
| 2026-05-04 18:32 | 41.24051 | -80.89580 | 35832 ft | 410 kts | 279° |
| 2026-05-04 18:32 | 41.24785 | -80.97095 | 35826 ft | 409 kts | 279° |
| 2026-05-04 18:33 | 41.25517 | -81.04552 | 35826 ft | 409 kts | 279° |
| 2026-05-04 18:33 | 41.26245 | -81.12051 | 35830 ft | 409 kts | 279° |
| 2026-05-04 18:34 | 41.26964 | -81.19549 | 35834 ft | 409 kts | 279° |
| 2026-05-04 18:34 | 41.27678 | -81.27047 | 35834 ft | 409 kts | 279° |
| 2026-05-04 18:35 | 41.28390 | -81.34556 | 35830 ft | 409 kts | 279° |
| 2026-05-04 18:35 | 41.29104 | -81.42047 | 35823 ft | 408 kts | 278° |
| 2026-05-04 18:36 | 41.29798 | -81.49548 | 35816 ft | 408 kts | 278° |
| 2026-05-04 18:36 | 41.30486 | -81.57044 | 35785 ft | 408 kts | 278° |
| 2026-05-04 18:37 | 41.31175 | -81.64491 | 35778 ft | 408 kts | 278° |
| 2026-05-04 18:37 | 41.31865 | -81.71984 | 35774 ft | 408 kts | 278° |
| 2026-05-04 18:38 | 41.32548 | -81.79482 | 35776 ft | 408 kts | 278° |
| 2026-05-04 18:38 | 41.33223 | -81.86975 | 35778 ft | 408 kts | 278° |
| 2026-05-04 18:39 | 41.33892 | -81.94472 | 35778 ft | 408 kts | 278° |
| 2026-05-04 18:39 | 41.34555 | -82.01920 | 35795 ft | 408 kts | 278° |
| 2026-05-04 18:40 | 41.35220 | -82.09427 | 35797 ft | 408 kts | 278° |
| 2026-05-04 18:40 | 41.36160 | -82.15542 | 35794 ft | 406 kts | 291° |
| 2026-05-04 18:41 | 41.38967 | -82.22026 | 35792 ft | 406 kts | 305° |
| 2026-05-04 18:41 | 41.42289 | -82.28128 | 35790 ft | 407 kts | 304° |
| 2026-05-04 18:42 | 41.45597 | -82.34239 | 35784 ft | 407 kts | 304° |
| 2026-05-04 18:42 | 41.48904 | -82.40364 | 35759 ft | 407 kts | 304° |
| 2026-05-04 18:43 | 41.52189 | -82.46458 | 35759 ft | 407 kts | 304° |
| 2026-05-04 18:43 | 41.55490 | -82.52591 | 35773 ft | 407 kts | 304° |
| 2026-05-04 18:44 | 41.58787 | -82.58724 | 35764 ft | 406 kts | 304° |
| 2026-05-04 18:44 | 41.62074 | -82.64867 | 35763 ft | 406 kts | 304° |
| 2026-05-04 18:45 | 41.65343 | -82.70968 | 35754 ft | 406 kts | 304° |
| 2026-05-04 18:45 | 41.68627 | -82.77106 | 35748 ft | 406 kts | 304° |
| 2026-05-04 18:46 | 41.71897 | -82.83256 | 35739 ft | 406 kts | 304° |
| 2026-05-04 18:46 | 41.75168 | -82.89412 | 35733 ft | 406 kts | 304° |
| 2026-05-04 18:47 | 41.78441 | -82.95566 | 35749 ft | 405 kts | 303° |
| 2026-05-04 18:47 | 41.81703 | -83.01733 | 35736 ft | 405 kts | 303° |
| 2026-05-04 18:48 | 41.84952 | -83.07906 | 35721 ft | 405 kts | 303° |
| 2026-05-04 18:48 | 41.88179 | -83.14038 | 35715 ft | 405 kts | 303° |
| 2026-05-04 18:49 | 41.91430 | -83.20208 | 35712 ft | 405 kts | 303° |
| 2026-05-04 18:49 | 41.94675 | -83.26384 | 35712 ft | 405 kts | 303° |
| 2026-05-04 18:50 | 41.97920 | -83.32569 | 35713 ft | 405 kts | 303° |
| 2026-05-04 18:50 | 42.01162 | -83.38768 | 35722 ft | 405 kts | 303° |
| 2026-05-04 18:51 | 42.04392 | -83.44970 | 35725 ft | 404 kts | 301° |
| 2026-05-04 18:51 | 42.06998 | -83.51582 | 35712 ft | 403 kts | 295° |
| 2026-05-04 18:52 | 42.09510 | -83.58319 | 35712 ft | 402 kts | 295° |
| 2026-05-04 18:52 | 42.12017 | -83.65056 | 35705 ft | 402 kts | 295° |
| 2026-05-04 18:53 | 42.14534 | -83.71792 | 35700 ft | 402 kts | 295° |
| 2026-05-04 18:53 | 42.17044 | -83.78531 | 35698 ft | 402 kts | 295° |
| 2026-05-04 18:54 | 42.19543 | -83.85262 | 35711 ft | 402 kts | 295° |
| 2026-05-04 18:54 | 42.22020 | -83.91956 | 35701 ft | 401 kts | 295° |
| 2026-05-04 18:55 | 42.24505 | -83.98706 | 35691 ft | 401 kts | 295° |
| 2026-05-04 18:55 | 42.28220 | -84.08828 | 35708 ft | 401 kts | 295° |
| 2026-05-04 18:56 | 42.30694 | -84.15570 | 35696 ft | 400 kts | 295° |
| 2026-05-04 18:56 | 42.33163 | -84.22312 | 35694 ft | 400 kts | 295° |
| 2026-05-04 18:57 | 42.35616 | -84.29015 | 35684 ft | 400 kts | 295° |
| 2026-05-04 18:57 | 42.38076 | -84.35758 | 35685 ft | 400 kts | 295° |
| 2026-05-04 18:58 | 42.40528 | -84.42507 | 35691 ft | 400 kts | 294° |
| 2026-05-04 18:58 | 42.42970 | -84.49264 | 35661 ft | 399 kts | 294° |
| 2026-05-04 18:59 | 42.45411 | -84.56024 | 35660 ft | 399 kts | 294° |
| 2026-05-04 18:59 | 42.47851 | -84.62787 | 35653 ft | 399 kts | 294° |
| 2026-05-04 19:00 | 42.50268 | -84.69512 | 35665 ft | 399 kts | 294° |
| 2026-05-04 19:00 | 42.52698 | -84.76283 | 35661 ft | 399 kts | 294° |
| 2026-05-04 19:01 | 42.55124 | -84.83054 | 35660 ft | 399 kts | 294° |
| 2026-05-04 19:01 | 42.57544 | -84.89821 | 35656 ft | 399 kts | 294° |
| 2026-05-04 19:02 | 42.59958 | -84.96591 | 35653 ft | 398 kts | 294° |
| 2026-05-04 19:02 | 42.62367 | -85.03367 | 35650 ft | 398 kts | 294° |
| 2026-05-04 19:03 | 42.64756 | -85.10103 | 35638 ft | 399 kts | 294° |
| 2026-05-04 19:03 | 42.67163 | -85.16901 | 35634 ft | 399 kts | 294° |
| 2026-05-04 19:04 | 42.69569 | -85.23709 | 35631 ft | 399 kts | 294° |
| 2026-05-04 19:04 | 42.71965 | -85.30526 | 35629 ft | 400 kts | 294° |
| 2026-05-04 19:05 | 42.74357 | -85.37350 | 35632 ft | 400 kts | 294° |
| 2026-05-04 19:05 | 42.76728 | -85.44135 | 35638 ft | 400 kts | 294° |
| 2026-05-04 19:06 | 42.78834 | -85.51116 | 35636 ft | 398 kts | 283° |
| 2026-05-04 19:06 | 42.79834 | -85.58529 | 35634 ft | 398 kts | 280° |
| 2026-05-04 19:07 | 42.80796 | -85.65961 | 35632 ft | 398 kts | 280° |
| 2026-05-04 19:07 | 42.81757 | -85.73396 | 35630 ft | 399 kts | 280° |
| 2026-05-04 19:08 | 42.82718 | -85.80835 | 35629 ft | 399 kts | 280° |
| 2026-05-04 19:08 | 42.83673 | -85.88282 | 35637 ft | 399 kts | 280° |
| 2026-05-04 19:09 | 42.84616 | -85.95673 | 35640 ft | 399 kts | 280° |
| 2026-05-04 19:09 | 42.85555 | -86.03122 | 35642 ft | 399 kts | 280° |
| 2026-05-04 19:10 | 42.86494 | -86.10570 | 35640 ft | 399 kts | 280° |
| 2026-05-04 19:10 | 42.87432 | -86.18024 | 35644 ft | 399 kts | 279° |
| 2026-05-04 19:11 | 42.88360 | -86.25479 | 35623 ft | 399 kts | 279° |
| 2026-05-04 19:11 | 42.89287 | -86.32934 | 35625 ft | 398 kts | 279° |
| 2026-05-04 19:12 | 42.90667 | -86.44064 | 35622 ft | 398 kts | 279° |
| 2026-05-04 19:13 | 42.91583 | -86.51516 | 35614 ft | 398 kts | 279° |
| 2026-05-04 19:13 | 42.92485 | -86.58969 | 35629 ft | 398 kts | 279° |
| 2026-05-04 19:14 | 42.93377 | -86.66426 | 35621 ft | 398 kts | 279° |
| 2026-05-04 19:14 | 42.94272 | -86.73877 | 35618 ft | 398 kts | 279° |
| 2026-05-04 19:15 | 42.95166 | -86.81323 | 35609 ft | 397 kts | 279° |
| 2026-05-04 19:15 | 42.96049 | -86.88731 | 35607 ft | 397 kts | 279° |
| 2026-05-04 19:16 | 42.96928 | -86.96177 | 35602 ft | 397 kts | 279° |
| 2026-05-04 19:16 | 42.97803 | -87.03620 | 35605 ft | 397 kts | 279° |
| 2026-05-04 19:17 | 42.98679 | -87.11060 | 35624 ft | 396 kts | 279° |
| 2026-05-04 19:17 | 42.99537 | -87.18482 | 35621 ft | 395 kts | 279° |
| 2026-05-04 19:18 | 43.00393 | -87.25880 | 35613 ft | 394 kts | 279° |
| 2026-05-04 19:18 | 43.01242 | -87.33269 | 35598 ft | 393 kts | 279° |
| 2026-05-04 19:19 | 43.02085 | -87.40650 | 35586 ft | 393 kts | 279° |
| 2026-05-04 19:19 | 43.02915 | -87.47986 | 35580 ft | 393 kts | 279° |
| 2026-05-04 19:20 | 43.03752 | -87.55373 | 35574 ft | 393 kts | 279° |
| 2026-05-04 19:20 | 43.04582 | -87.62763 | 35570 ft | 393 kts | 279° |
| 2026-05-04 19:21 | 43.05406 | -87.70155 | 35568 ft | 393 kts | 278° |
| 2026-05-04 19:21 | 43.06221 | -87.77550 | 35580 ft | 393 kts | 278° |
| 2026-05-04 19:22 | 43.07034 | -87.84944 | 35580 ft | 393 kts | 278° |
| 2026-05-04 19:22 | 43.07844 | -87.92333 | 35580 ft | 393 kts | 278° |
| 2026-05-04 19:23 | 43.08654 | -87.99671 | 35577 ft | 393 kts | 278° |
| 2026-05-04 19:23 | 43.09454 | -88.07060 | 35576 ft | 393 kts | 278° |
| 2026-05-04 19:24 | 43.10241 | -88.14447 | 35577 ft | 392 kts | 278° |
| 2026-05-04 19:24 | 43.11024 | -88.21840 | 35579 ft | 392 kts | 278° |
| 2026-05-04 19:25 | 43.12455 | -88.29024 | 35576 ft | 394 kts | 295° |
| 2026-05-04 19:25 | 43.15655 | -88.35172 | 35570 ft | 399 kts | 305° |
| 2026-05-04 19:26 | 43.19116 | -88.41054 | 35560 ft | 399 kts | 305° |
| 2026-05-04 19:26 | 43.22592 | -88.47000 | 35566 ft | 399 kts | 304° |
| 2026-05-04 19:27 | 43.26058 | -88.52941 | 35557 ft | 399 kts | 304° |
| 2026-05-04 19:27 | 43.29527 | -88.58883 | 35560 ft | 398 kts | 304° |
| 2026-05-04 19:28 | 43.32983 | -88.64826 | 35557 ft | 398 kts | 304° |
| 2026-05-04 19:28 | 43.36435 | -88.70774 | 35553 ft | 398 kts | 304° |
| 2026-05-04 19:29 | 43.39859 | -88.76684 | 35549 ft | 398 kts | 304° |
| 2026-05-04 19:29 | 43.43307 | -88.82636 | 35573 ft | 398 kts | 303° |
| 2026-05-04 19:30 | 43.46745 | -88.88592 | 35562 ft | 397 kts | 303° |
| 2026-05-04 19:30 | 43.50176 | -88.94556 | 35553 ft | 397 kts | 303° |
| 2026-05-04 19:31 | 43.53609 | -89.00522 | 35537 ft | 397 kts | 303° |
| 2026-05-04 19:31 | 43.57044 | -89.06493 | 35519 ft | 397 kts | 303° |
| 2026-05-04 19:32 | 43.60433 | -89.12428 | 35511 ft | 397 kts | 303° |
| 2026-05-04 19:32 | 43.63844 | -89.18418 | 35534 ft | 397 kts | 303° |
| 2026-05-04 19:33 | 43.67260 | -89.24397 | 35535 ft | 396 kts | 303° |
| 2026-05-04 19:33 | 43.70676 | -89.30375 | 35527 ft | 396 kts | 303° |
| 2026-05-04 19:34 | 43.74077 | -89.36363 | 35522 ft | 395 kts | 303° |
| 2026-05-04 19:34 | 43.77467 | -89.42355 | 35512 ft | 395 kts | 303° |
| 2026-05-04 19:35 | 43.80834 | -89.48312 | 35507 ft | 395 kts | 303° |
| 2026-05-04 19:35 | 43.84218 | -89.54311 | 35534 ft | 395 kts | 302° |
| 2026-05-04 19:36 | 43.87595 | -89.60305 | 35535 ft | 394 kts | 302° |
| 2026-05-04 19:36 | 43.90968 | -89.66298 | 35530 ft | 394 kts | 302° |
| 2026-05-04 19:37 | 43.94333 | -89.72297 | 35519 ft | 393 kts | 302° |
| 2026-05-04 19:37 | 43.97691 | -89.78296 | 35514 ft | 393 kts | 302° |
| 2026-05-04 19:38 | 44.01022 | -89.84261 | 35511 ft | 393 kts | 302° |
| 2026-05-04 19:38 | 44.04368 | -89.90272 | 35547 ft | 393 kts | 302° |
| 2026-05-04 19:39 | 44.07713 | -89.96275 | 35540 ft | 392 kts | 302° |
| 2026-05-04 19:39 | 44.11130 | -90.02198 | 35537 ft | 393 kts | 303° |
| 2026-05-04 19:40 | 44.14610 | -90.08068 | 35534 ft | 392 kts | 304° |
| 2026-05-04 19:40 | 44.17492 | -90.12946 | 35529 ft | 392 kts | 303° |
| 2026-05-04 19:41 | 44.19778 | -90.16845 | 35525 ft | 391 kts | 303° |
| 2026-05-04 19:41 | 44.24341 | -90.24693 | 35559 ft | 391 kts | 303° |
| 2026-05-04 19:42 | 44.27763 | -90.30593 | 35544 ft | 390 kts | 303° |
| 2026-05-04 19:42 | 44.31177 | -90.36487 | 35539 ft | 390 kts | 303° |
| 2026-05-04 19:43 | 44.34510 | -90.42449 | 35535 ft | 385 kts | 296° |
| 2026-05-04 19:43 | 44.36682 | -90.49141 | 35534 ft | 380 kts | 289° |
| 2026-05-04 19:44 | 44.38699 | -90.55975 | 35533 ft | 380 kts | 289° |
| 2026-05-04 19:44 | 44.40716 | -90.62815 | 35264 ft | 382 kts | 289° |
| 2026-05-04 19:44 | 44.41720 | -90.66205 | 35006 ft | 372 kts | 289° |
| 2026-05-04 19:45 | 44.42703 | -90.69515 | 34796 ft | 364 kts | 288° |
| 2026-05-04 19:45 | 44.43670 | -90.72770 | 34549 ft | 360 kts | 288° |
| 2026-05-04 19:45 | 44.44615 | -90.75956 | 34265 ft | 357 kts | 288° |
| 2026-05-04 19:45 | 44.45557 | -90.79150 | 33798 ft | 353 kts | 288° |
| 2026-05-04 19:46 | 44.46488 | -90.82311 | 33261 ft | 350 kts | 288° |
| 2026-05-04 19:46 | 44.47411 | -90.85440 | 32786 ft | 345 kts | 288° |
| 2026-05-04 19:46 | 44.48319 | -90.88521 | 32323 ft | 340 kts | 287° |
| 2026-05-04 19:46 | 44.49216 | -90.91562 | 31854 ft | 336 kts | 287° |
| 2026-05-04 19:47 | 44.50098 | -90.94566 | 31399 ft | 332 kts | 287° |
| 2026-05-04 19:47 | 44.50968 | -90.97538 | 30959 ft | 328 kts | 287° |
| 2026-05-04 19:47 | 44.51827 | -91.00478 | 30522 ft | 324 kts | 287° |
| 2026-05-04 19:47 | 44.52677 | -91.03390 | 30105 ft | 322 kts | 287° |
| 2026-05-04 19:48 | 44.53519 | -91.06278 | 29688 ft | 320 kts | 287° |
| 2026-05-04 19:48 | 44.54356 | -91.09152 | 29231 ft | 317 kts | 287° |
| 2026-05-04 19:48 | 44.55178 | -91.11968 | 28838 ft | 315 kts | 287° |
| 2026-05-04 19:48 | 44.56002 | -91.14802 | 28436 ft | 313 kts | 287° |
| 2026-05-04 19:49 | 44.56818 | -91.17618 | 28056 ft | 311 kts | 287° |
| 2026-05-04 19:49 | 44.57629 | -91.20422 | 27680 ft | 309 kts | 287° |
| 2026-05-04 19:49 | 44.58434 | -91.23211 | 27302 ft | 307 kts | 287° |
| 2026-05-04 19:49 | 44.59233 | -91.25979 | 26917 ft | 305 kts | 287° |
| 2026-05-04 19:50 | 44.60027 | -91.28730 | 26539 ft | 303 kts | 287° |
| 2026-05-04 19:50 | 44.60816 | -91.31464 | 26171 ft | 301 kts | 287° |
| 2026-05-04 19:50 | 44.61602 | -91.34182 | 25756 ft | 299 kts | 287° |
| 2026-05-04 19:50 | 44.62380 | -91.36878 | 25345 ft | 296 kts | 287° |
| 2026-05-04 19:51 | 44.63144 | -91.39510 | 24942 ft | 294 kts | 287° |
| 2026-05-04 19:51 | 44.63911 | -91.42157 | 24538 ft | 291 kts | 287° |
| 2026-05-04 19:51 | 44.64672 | -91.44788 | 24129 ft | 289 kts | 287° |
| 2026-05-04 19:51 | 44.65424 | -91.47399 | 23719 ft | 287 kts | 287° |
| 2026-05-04 19:52 | 44.66173 | -91.49990 | 23309 ft | 285 kts | 287° |
| 2026-05-04 19:52 | 44.66915 | -91.52560 | 22863 ft | 283 kts | 287° |
| 2026-05-04 19:52 | 44.67649 | -91.55115 | 22442 ft | 280 kts | 287° |
| 2026-05-04 19:52 | 44.68372 | -91.57646 | 22053 ft | 278 kts | 287° |
| 2026-05-04 19:53 | 44.69089 | -91.60160 | 21660 ft | 277 kts | 287° |
| 2026-05-04 19:53 | 44.69804 | -91.62668 | 21283 ft | 276 kts | 287° |
| 2026-05-04 19:53 | 44.70517 | -91.65167 | 20906 ft | 275 kts | 287° |
| 2026-05-04 19:53 | 44.71229 | -91.67655 | 20530 ft | 274 kts | 287° |
| 2026-05-04 19:54 | 44.71940 | -91.70135 | 20182 ft | 273 kts | 287° |
| 2026-05-04 19:54 | 44.72647 | -91.72607 | 19813 ft | 272 kts | 287° |
| 2026-05-04 19:54 | 44.73342 | -91.75040 | 19451 ft | 271 kts | 287° |
| 2026-05-04 19:54 | 44.74043 | -91.77498 | 19090 ft | 270 kts | 287° |
| 2026-05-04 19:55 | 44.74740 | -91.79956 | 18728 ft | 270 kts | 287° |
| 2026-05-04 19:55 | 44.75433 | -91.82403 | 18368 ft | 269 kts | 287° |
| 2026-05-04 19:55 | 44.76126 | -91.84849 | 18011 ft | 268 kts | 287° |
| 2026-05-04 19:55 | 44.76817 | -91.87283 | 17626 ft | 267 kts | 287° |
| 2026-05-04 19:56 | 44.77493 | -91.89714 | 17309 ft | 266 kts | 286° |
| 2026-05-04 19:56 | 44.78152 | -91.92137 | 17029 ft | 264 kts | 286° |
| 2026-05-04 19:56 | 44.78795 | -91.94521 | 16762 ft | 263 kts | 286° |
| 2026-05-04 19:56 | 44.79441 | -91.96914 | 16542 ft | 258 kts | 286° |
| 2026-05-04 19:57 | 44.80074 | -91.99260 | 16264 ft | 255 kts | 286° |
| 2026-05-04 19:57 | 44.80703 | -92.01583 | 15940 ft | 253 kts | 286° |
| 2026-05-04 19:57 | 44.81329 | -92.03887 | 15620 ft | 251 kts | 286° |
| 2026-05-04 19:57 | 44.81951 | -92.06176 | 15308 ft | 249 kts | 286° |
| 2026-05-04 19:58 | 44.82566 | -92.08450 | 14996 ft | 247 kts | 286° |
| 2026-05-04 19:58 | 44.83173 | -92.10708 | 14688 ft | 245 kts | 286° |
| 2026-05-04 19:58 | 44.83776 | -92.12950 | 14384 ft | 244 kts | 286° |
| 2026-05-04 19:58 | 44.84375 | -92.15177 | 14086 ft | 242 kts | 286° |
| 2026-05-04 19:59 | 44.84961 | -92.17364 | 13787 ft | 241 kts | 284° |
| 2026-05-04 19:59 | 44.85347 | -92.19632 | 13488 ft | 236 kts | 275° |
| 2026-05-04 19:59 | 44.85492 | -92.21929 | 13170 ft | 234 kts | 273° |
| 2026-05-04 19:59 | 44.85629 | -92.24205 | 12868 ft | 232 kts | 273° |
| 2026-05-04 20:00 | 44.85767 | -92.26460 | 12593 ft | 230 kts | 274° |
| 2026-05-04 20:00 | 44.85904 | -92.28692 | 12270 ft | 227 kts | 274° |
| 2026-05-04 20:00 | 44.86037 | -92.30896 | 11987 ft | 224 kts | 274° |
| 2026-05-04 20:00 | 44.86168 | -92.33082 | 11695 ft | 222 kts | 274° |
| 2026-05-04 20:01 | 44.86280 | -92.35253 | 11402 ft | 221 kts | 274° |
| 2026-05-04 20:01 | 44.86383 | -92.37406 | 11109 ft | 219 kts | 274° |
| 2026-05-04 20:01 | 44.86482 | -92.39508 | 10824 ft | 217 kts | 274° |
| 2026-05-04 20:01 | 44.86581 | -92.41621 | 10530 ft | 215 kts | 275° |
| 2026-05-04 20:02 | 44.86680 | -92.43718 | 10238 ft | 213 kts | 275° |
| 2026-05-04 20:02 | 44.86781 | -92.45795 | 9963 ft | 212 kts | 275° |
| 2026-05-04 20:02 | 44.86768 | -92.47869 | 9660 ft | 213 kts | 266° |
| 2026-05-04 20:02 | 44.86419 | -92.49906 | 9343 ft | 216 kts | 256° |
| 2026-05-04 20:03 | 44.85765 | -92.51841 | 9018 ft | 221 kts | 250° |
| 2026-05-04 20:03 | 44.85057 | -92.53767 | 8695 ft | 222 kts | 250° |
| 2026-05-04 20:03 | 44.84350 | -92.55703 | 8371 ft | 222 kts | 249° |
| 2026-05-04 20:03 | 44.83639 | -92.57642 | 8050 ft | 224 kts | 249° |
| 2026-05-04 20:04 | 44.82931 | -92.59571 | 7725 ft | 225 kts | 249° |
| 2026-05-04 20:04 | 44.82212 | -92.61536 | 7386 ft | 226 kts | 248° |
| 2026-05-04 20:04 | 44.81490 | -92.63512 | 7054 ft | 228 kts | 248° |
| 2026-05-04 20:04 | 44.80734 | -92.65594 | 6960 ft | 246 kts | 248° |
| 2026-05-04 20:05 | 44.79942 | -92.67763 | 6961 ft | 251 kts | 248° |
| 2026-05-04 20:05 | 44.79153 | -92.69901 | 6959 ft | 238 kts | 248° |
| 2026-05-04 20:05 | 44.78411 | -92.71890 | 6965 ft | 223 kts | 248° |
| 2026-05-04 20:05 | 44.77698 | -92.73809 | 6967 ft | 220 kts | 248° |
| 2026-05-04 20:06 | 44.77210 | -92.75805 | 6971 ft | 214 kts | 266° |
| 2026-05-04 20:06 | 44.77228 | -92.77880 | 6709 ft | 211 kts | 278° |
| 2026-05-04 20:06 | 44.77386 | -92.79939 | 6450 ft | 212 kts | 278° |
| 2026-05-04 20:06 | 44.77535 | -92.82005 | 6223 ft | 213 kts | 278° |
| 2026-05-04 20:07 | 44.77680 | -92.84086 | 5973 ft | 215 kts | 278° |
| 2026-05-04 20:07 | 44.77825 | -92.86182 | 5711 ft | 214 kts | 277° |
| 2026-05-04 20:07 | 44.77968 | -92.88237 | 5469 ft | 214 kts | 277° |
| 2026-05-04 20:07 | 44.78112 | -92.90312 | 5218 ft | 212 kts | 277° |
| 2026-05-04 20:08 | 44.78252 | -92.92375 | 4971 ft | 211 kts | 277° |
| 2026-05-04 20:08 | 44.78393 | -92.94438 | 4731 ft | 211 kts | 278° |
| 2026-05-04 20:08 | 44.78531 | -92.96474 | 4483 ft | 208 kts | 278° |
| 2026-05-04 20:08 | 44.78668 | -92.98500 | 4240 ft | 208 kts | 278° |
| 2026-05-04 20:09 | 44.78883 | -93.00498 | 4015 ft | 204 kts | 291° |
| 2026-05-04 20:09 | 44.79555 | -93.02220 | 3790 ft | 199 kts | 302° |
| 2026-05-04 20:09 | 44.80279 | -93.03862 | 3522 ft | 197 kts | 301° |
| 2026-05-04 20:09 | 44.80995 | -93.05500 | 3243 ft | 196 kts | 301° |
| 2026-05-04 20:10 | 44.81699 | -93.07112 | 2999 ft | 189 kts | 301° |
| 2026-05-04 20:10 | 44.82358 | -93.08624 | 2755 ft | 179 kts | 302° |
| 2026-05-04 20:10 | 44.82993 | -93.10084 | 2511 ft | 170 kts | 301° |
| 2026-05-04 20:10 | 44.83591 | -93.11456 | 2283 ft | 158 kts | 301° |
| 2026-05-04 20:11 | 44.84129 | -93.12693 | 2092 ft | 137 kts | 301° |
| 2026-05-04 20:11 | 44.84609 | -93.13799 | 1925 ft | 131 kts | 301° |
| 2026-05-04 20:11 | 44.85078 | -93.14877 | 1739 ft | 131 kts | 301° |
| 2026-05-04 20:11 | 44.85559 | -93.15985 | 1556 ft | 135 kts | 301° |
| 2026-05-04 20:12 | 44.86050 | -93.17116 | 1380 ft | 135 kts | 300° |
| 2026-05-04 20:12 | 44.86528 | -93.18217 | 1180 ft | 129 kts | 299° |
| 2026-05-04 20:12 | 44.86998 | -93.19303 | 1001 ft | 132 kts | 300° |
| 2026-05-04 20:12 | 44.87471 | -93.20395 | 856 ft | 130 kts | 297° |
| 2026-05-04 20:13 | 44.87927 | -93.21448 | 1037 ft | 128 kts | 302° |
| 2026-05-04 20:13 | 44.88440 | -93.22598 | 1421 ft | 153 kts | 301° |
| 2026-05-04 20:13 | 44.89027 | -93.23953 | 1801 ft | 168 kts | 301° |
| 2026-05-04 20:13 | 44.89642 | -93.25467 | 2198 ft | 186 kts | 296° |
| 2026-05-04 20:14 | 44.89809 | -93.27294 | 2871 ft | 198 kts | 262° |
| 2026-05-04 20:14 | 44.89173 | -93.29071 | 3690 ft | 210 kts | 241° |
| 2026-05-04 20:14 | 44.88335 | -93.30765 | 3958 ft | 209 kts | 240° |
| 2026-05-04 20:14 | 44.87452 | -93.32394 | 4020 ft | 211 kts | 233° |
| 2026-05-04 20:15 | 44.86158 | -93.33447 | 4020 ft | 226 kts | 198° |
| 2026-05-04 20:15 | 44.84560 | -93.33516 | 4027 ft | 233 kts | 181° |
| 2026-05-04 20:15 | 44.82941 | -93.33304 | 4020 ft | 235 kts | 178° |
| 2026-05-04 20:15 | 44.81434 | -93.32465 | 4020 ft | 242 kts | 145° |
| 2026-05-04 20:16 | 44.80336 | -93.30632 | 4026 ft | 247 kts | 123° |
| 2026-05-04 20:16 | 44.79457 | -93.28568 | 4019 ft | 246 kts | 120° |
| 2026-05-04 20:16 | 44.78612 | -93.26500 | 4024 ft | 243 kts | 120° |
| 2026-05-04 20:16 | 44.77772 | -93.24432 | 4017 ft | 242 kts | 120° |
| 2026-05-04 20:17 | 44.76930 | -93.22352 | 4021 ft | 245 kts | 120° |
| 2026-05-04 20:17 | 44.76086 | -93.20261 | 4018 ft | 245 kts | 120° |
| 2026-05-04 20:17 | 44.75244 | -93.18175 | 4016 ft | 245 kts | 120° |
| 2026-05-04 20:17 | 44.74403 | -93.16089 | 4021 ft | 244 kts | 120° |
| 2026-05-04 20:18 | 44.73578 | -93.14045 | 4019 ft | 245 kts | 120° |
| 2026-05-04 20:18 | 44.72958 | -93.11833 | 4016 ft | 242 kts | 97° |
| 2026-05-04 20:18 | 44.73065 | -93.09504 | 4007 ft | 236 kts | 68° |
| 2026-05-04 20:18 | 44.73853 | -93.07550 | 4010 ft | 227 kts | 40° |
| 2026-05-04 20:19 | 44.74964 | -93.05993 | 3980 ft | 225 kts | 34° |
| 2026-05-04 20:19 | 44.76273 | -93.04841 | 3674 ft | 218 kts | 14° |
| 2026-05-04 20:19 | 44.77668 | -93.04396 | 3570 ft | 202 kts | 357° |
| 2026-05-04 20:19 | 44.79024 | -93.04556 | 3460 ft | 194 kts | 341° |
| 2026-05-04 20:20 | 44.80258 | -93.05246 | 3301 ft | 189 kts | 326° |
| 2026-05-04 20:20 | 44.81268 | -93.06374 | 3091 ft | 184 kts | 311° |
| 2026-05-04 20:20 | 44.82000 | -93.07798 | 2875 ft | 177 kts | 301° |
| 2026-05-04 20:20 | 44.82626 | -93.09236 | 2638 ft | 166 kts | 301° |
| 2026-05-04 20:21 | 44.83208 | -93.10575 | 2426 ft | 155 kts | 301° |
| 2026-05-04 20:21 | 44.83751 | -93.11825 | 2225 ft | 141 kts | 301° |
| 2026-05-04 20:21 | 44.84659 | -93.13912 | 1893 ft | 118 kts | 301° |
| 2026-05-04 20:22 | 44.85084 | -93.14892 | 1732 ft | 118 kts | 301° |
| 2026-05-04 20:22 | 44.85507 | -93.15864 | 1575 ft | 114 kts | 300° |
| 2026-05-04 20:22 | 44.85917 | -93.16814 | 1414 ft | 113 kts | 296° |
| 2026-05-04 20:22 | 44.86337 | -93.17776 | 1267 ft | 117 kts | 301° |
| 2026-05-04 20:23 | 44.86760 | -93.18752 | 1105 ft | 115 kts | 297° |
| 2026-05-04 20:23 | 44.87175 | -93.19711 | 893 ft | 118 kts | 303° |
| 2026-05-04 20:23 | 44.87587 | -93.20690 | 833 ft | 113 kts | 306° |
| 2026-05-04 20:23 | 44.87920 | -93.21439 | 824 ft | 58 kts | 302° |
| 2026-05-04 20:24 | 44.88034 | -93.21648 | 823 ft | 16 kts | 345° |
| 2026-05-04 20:24 | 44.88128 | -93.21637 | 825 ft | 13 kts | 329° |
| 2026-05-04 20:24 | 44.88180 | -93.21734 | 821 ft | 13 kts | 301° |
| 2026-05-04 20:24 | 44.88223 | -93.21843 | 825 ft | 13 kts | 299° |
| 2026-05-04 20:25 | 44.88265 | -93.21932 | 825 ft | 9 kts | 325° |
| 2026-05-04 20:25 | 44.88325 | -93.21917 | 826 ft | 10 kts | 29° |
| 2026-05-04 20:25 | 44.88368 | -93.21844 | 823 ft | 10 kts | 71° |
| 2026-05-04 20:25 | 44.88368 | -93.21762 | 825 ft | 9 kts | 97° |
| 2026-05-04 20:26 | 44.88363 | -93.21693 | 822 ft | 5 kts | 96° |
| 2026-05-04 20:26 | 44.88363 | -93.21688 | 823 ft | 1 kts | 97° |
| 2026-05-04 20:26 | 44.88361 | -93.21672 | 822 ft | 0 kts | 98° |